createdAt,value
2019-03-29T00:02:27.889Z,35.43
2019-03-29T00:04:58.331Z,37.50
2019-03-29T00:07:39.348Z,37.57
2019-03-29T00:10:00.740Z,36.63
2019-03-29T00:12:31.065Z,35.57
2019-03-29T00:15:01.358Z,35.57
2019-03-29T00:17:31.567Z,42.33
2019-03-29T00:20:02.097Z,38.30
2019-03-29T00:22:32.502Z,36.47
2019-03-29T00:25:02.282Z,37.77
2019-03-29T00:27:32.266Z,34.47
2019-03-29T00:30:02.086Z,37.70
2019-03-29T00:32:32.919Z,39.73
2019-03-29T00:35:03.445Z,38.93
2019-03-29T00:37:33.619Z,39.37
2019-03-29T00:40:04.099Z,39.43
2019-03-29T00:42:33.912Z,38.27
2019-03-29T00:45:04.973Z,39.50
2019-03-29T00:47:34.746Z,37.47
2019-03-29T00:50:05.331Z,40.93
2019-03-29T00:52:35.774Z,41.83
2019-03-29T00:55:06.807Z,42.20
2019-03-29T00:57:36.965Z,35.50
2019-03-29T01:00:07.636Z,38.13
2019-03-29T01:02:37.644Z,39.10
2019-03-29T01:05:08.534Z,39.00
2019-03-29T01:07:38.232Z,36.27
2019-03-29T01:10:08.490Z,39.03
2019-03-29T01:12:38.188Z,48.07
2019-03-29T01:15:09.544Z,51.23
2019-03-29T01:17:39.641Z,52.27
2019-03-29T01:20:10.306Z,56.60
2019-03-29T01:22:41.142Z,65.07
2019-03-29T01:25:11.627Z,66.07
2019-03-29T01:27:41.361Z,68.97
2019-03-29T01:30:12.679Z,76.93
2019-03-29T01:32:42.842Z,104.33
2019-03-29T01:35:12.856Z,88.10
2019-03-29T01:37:43.060Z,75.90
2019-03-29T01:40:13.461Z,70.80
2019-03-29T01:42:45.073Z,75.23
2019-03-29T01:45:15.475Z,143.40
2019-03-29T01:47:45.646Z,104.80
2019-03-29T01:50:16.080Z,63.40
2019-03-29T01:52:46.670Z,60.13
2019-03-29T01:55:17.321Z,60.60
2019-03-29T01:57:47.407Z,72.43
2019-03-29T02:00:28.046Z,112.17
2019-03-29T02:02:57.741Z,76.53
2019-03-29T02:05:27.787Z,74.90
2019-03-29T02:07:58.434Z,45.77
2019-03-29T02:10:28.172Z,61.13
2019-03-29T02:12:58.071Z,79.37
2019-03-29T02:15:28.709Z,66.67
2019-03-29T02:17:58.968Z,53.23
2019-03-29T02:20:29.079Z,94.33
2019-03-29T02:22:58.788Z,92.53
2019-03-29T02:25:28.572Z,117.07
2019-03-29T02:27:58.836Z,73.93
2019-03-29T02:30:28.903Z,59.80
2019-03-29T02:32:58.645Z,81.37
2019-03-29T02:35:28.596Z,82.10
2019-03-29T02:37:58.856Z,104.60
2019-03-29T02:40:29.062Z,91.30
2019-03-29T02:42:59.167Z,60.80
2019-03-29T02:45:30.554Z,63.63
2019-03-29T02:48:01.348Z,62.90
2019-03-29T02:50:31.435Z,40.30
2019-03-29T02:53:01.553Z,108.37
2019-03-29T02:55:31.330Z,70.00
2019-03-29T02:58:01.825Z,103.70
2019-03-29T03:00:32.005Z,76.47
2019-03-29T03:03:02.531Z,66.90
2019-03-29T03:05:32.416Z,71.80
2019-03-29T03:08:02.124Z,46.60
2019-03-29T03:10:32.245Z,47.80
2019-03-29T03:13:02.086Z,69.97
2019-03-29T03:15:31.898Z,65.60
2019-03-29T03:18:01.792Z,72.10
2019-03-29T03:20:31.871Z,46.23
2019-03-29T03:23:02.005Z,67.77
2019-03-29T03:25:32.401Z,69.00
2019-03-29T03:28:02.792Z,38.77
2019-03-29T03:30:33.429Z,96.07
2019-03-29T03:33:03.347Z,52.03
2019-03-29T03:35:33.515Z,43.77
2019-03-29T03:38:03.394Z,49.17
2019-03-29T03:40:33.204Z,34.07
2019-03-29T03:43:03.384Z,34.27
2019-03-29T03:45:33.679Z,31.60
2019-03-29T03:48:03.493Z,30.97
2019-03-29T03:50:39.033Z,29.77
2019-03-29T03:53:08.778Z,37.20
2019-03-29T03:55:40.179Z,41.37
2019-03-29T03:58:11.997Z,34.80
2019-03-29T04:01:00.815Z,43.33
2019-03-29T04:03:31.716Z,43.43
2019-03-29T04:06:01.588Z,38.87
2019-03-29T04:08:31.369Z,29.63
2019-03-29T04:11:01.487Z,36.17
2019-03-29T04:13:31.694Z,48.73
2019-03-29T04:16:01.823Z,31.43
2019-03-29T04:18:31.683Z,29.40
2019-03-29T04:21:01.549Z,45.07
2019-03-29T04:23:31.976Z,32.93
2019-03-29T04:26:02.337Z,29.23
2019-03-29T04:28:32.557Z,28.73
2019-03-29T04:31:02.561Z,26.07
2019-03-29T04:33:32.694Z,28.93
2019-03-29T04:36:02.411Z,29.57
2019-03-29T04:38:32.554Z,27.20
2019-03-29T04:41:02.468Z,29.10
2019-03-29T04:43:32.974Z,28.90
2019-03-29T04:46:03.448Z,26.30
2019-03-29T04:48:33.994Z,35.40
2019-03-29T04:51:03.999Z,30.87
2019-03-29T04:53:35.241Z,27.23
2019-03-29T04:56:05.927Z,30.07
2019-03-29T04:58:35.644Z,29.70
2019-03-29T05:01:06.585Z,37.93
2019-03-29T05:03:36.831Z,34.73
2019-03-29T05:06:07.019Z,38.77
2019-03-29T05:08:37.423Z,39.90
2019-03-29T05:11:07.212Z,46.03
2019-03-29T05:13:37.336Z,45.97
2019-03-29T05:16:07.050Z,45.80
2019-03-29T05:18:37.085Z,42.37
2019-03-29T05:21:06.894Z,41.53
2019-03-29T05:23:36.603Z,43.73
2019-03-29T05:26:06.447Z,36.97
2019-03-29T05:28:36.774Z,35.33
2019-03-29T05:31:09.575Z,39.67
2019-03-29T05:33:39.447Z,36.63
2019-03-29T05:36:09.877Z,39.13
2019-03-29T05:38:39.677Z,37.93
2019-03-29T05:41:10.186Z,38.03
2019-03-29T05:43:40.179Z,36.23
2019-03-29T05:46:10.381Z,33.57
2019-03-29T05:48:40.181Z,36.67
2019-03-29T05:51:10.046Z,31.43
2019-03-29T05:53:39.767Z,35.33
2019-03-29T05:56:09.563Z,48.47
2019-03-29T05:58:39.521Z,32.63
2019-03-29T06:01:09.882Z,30.10
2019-03-29T06:03:39.683Z,33.30
2019-03-29T06:06:09.468Z,33.40
2019-03-29T06:08:39.175Z,37.63
2019-03-29T06:11:09.741Z,37.20
2019-03-29T06:13:39.441Z,50.30
2019-03-29T06:16:09.557Z,51.40
2019-03-29T06:18:41.315Z,47.63
2019-03-29T06:21:11.453Z,40.73
2019-03-29T06:23:41.175Z,48.43
2019-03-29T06:26:11.325Z,49.17
2019-03-29T06:28:42.393Z,47.40
2019-03-29T06:31:12.718Z,40.50
2019-03-29T06:33:44.546Z,41.57
2019-03-29T06:36:16.027Z,42.33
2019-03-29T06:38:46.715Z,44.87
2019-03-29T06:41:17.060Z,39.93
2019-03-29T06:43:47.159Z,40.70
2019-03-29T06:46:16.893Z,52.63
2019-03-29T06:48:46.962Z,51.17
2019-03-29T06:51:17.068Z,45.20
2019-03-29T06:53:46.821Z,52.57
2019-03-29T06:56:16.687Z,53.17
2019-03-29T06:58:46.417Z,52.97
2019-03-29T07:01:16.141Z,56.73
2019-03-29T07:03:46.381Z,50.37
2019-03-29T07:06:16.451Z,47.93
2019-03-29T07:08:46.154Z,49.37
2019-03-29T07:11:18.039Z,57.80
2019-03-29T07:13:57.492Z,53.17
2019-03-29T07:16:22.466Z,57.00
2019-03-29T07:18:52.581Z,64.33
2019-03-29T07:21:22.475Z,62.50
2019-03-29T07:23:52.263Z,57.83
2019-03-29T07:26:22.171Z,75.67
2019-03-29T07:28:51.933Z,64.53
2019-03-29T07:31:22.352Z,67.53
2019-03-29T07:33:52.451Z,59.20
2019-03-29T07:36:22.184Z,62.03
2019-03-29T07:38:52.568Z,72.27
2019-03-29T07:41:31.554Z,79.37
2019-03-29T07:43:53.853Z,67.73
2019-03-29T07:46:23.965Z,72.47
2019-03-29T07:48:53.987Z,65.83
2019-03-29T07:51:24.493Z,70.23
2019-03-29T07:53:54.626Z,77.27
2019-03-29T07:56:24.343Z,69.20
2019-03-29T07:58:54.453Z,73.23
2019-03-29T08:01:24.656Z,71.17
2019-03-29T08:03:54.569Z,74.20
2019-03-29T08:06:24.287Z,68.93
2019-03-29T08:08:54.488Z,71.03
2019-03-29T08:11:26.464Z,57.87
2019-03-29T08:13:56.039Z,76.23
2019-03-29T08:16:25.774Z,62.33
2019-03-29T08:18:55.915Z,71.87
2019-03-29T08:21:25.758Z,66.90
2019-03-29T08:23:56.438Z,69.07
2019-03-29T08:26:26.618Z,70.30
2019-03-29T08:28:56.795Z,71.53
2019-03-29T08:31:27.335Z,64.23
2019-03-29T08:33:57.172Z,66.43
2019-03-29T08:36:27.307Z,69.70
2019-03-29T08:38:57.799Z,71.67
2019-03-29T08:41:27.585Z,66.73
2019-03-29T08:43:57.827Z,74.03
2019-03-29T08:46:27.736Z,72.93
2019-03-29T08:48:57.749Z,67.23
2019-03-29T08:51:27.857Z,77.67
2019-03-29T08:53:57.587Z,61.30
2019-03-29T08:56:27.478Z,70.23
2019-03-29T08:58:57.292Z,69.00
2019-03-29T09:01:27.125Z,68.00
2019-03-29T09:04:04.988Z,72.63
2019-03-29T09:06:30.274Z,66.33
2019-03-29T09:09:00.512Z,64.83
2019-03-29T09:11:30.205Z,74.10
2019-03-29T09:14:00.452Z,69.13
2019-03-29T09:16:31.037Z,76.23
2019-03-29T09:19:00.786Z,55.37
2019-03-29T09:21:30.916Z,62.50
2019-03-29T09:24:00.653Z,59.00
2019-03-29T09:26:30.369Z,49.70
2019-03-29T09:29:00.069Z,43.67
2019-03-29T09:31:29.862Z,52.10
2019-03-29T09:33:59.663Z,45.93
2019-03-29T09:36:29.455Z,48.17
2019-03-29T09:38:59.261Z,41.53
2019-03-29T09:41:29.041Z,38.50
2019-03-29T09:43:58.747Z,38.53
2019-03-29T09:46:28.564Z,41.07
2019-03-29T09:48:58.658Z,41.43
2019-03-29T09:51:28.855Z,34.90
2019-03-29T09:53:59.117Z,35.53
2019-03-29T09:56:38.745Z,31.43
2019-03-29T09:59:00.805Z,36.73
2019-03-29T10:01:31.449Z,35.27
2019-03-29T10:04:01.766Z,32.53
2019-03-29T10:06:31.565Z,44.30
2019-03-29T10:09:01.666Z,36.87
2019-03-29T10:11:31.835Z,29.77
2019-03-29T10:14:01.631Z,34.37
2019-03-29T10:16:31.451Z,29.83
2019-03-29T10:19:01.569Z,32.80
2019-03-29T10:21:33.965Z,32.70
2019-03-29T10:24:03.259Z,29.43
2019-03-29T10:26:33.147Z,32.70
2019-03-29T10:29:03.191Z,33.13
2019-03-29T10:31:33.327Z,29.07
2019-03-29T10:34:03.025Z,26.55
2019-03-29T10:36:33.623Z,27.27
2019-03-29T10:39:05.145Z,35.58
2019-03-29T10:41:37.956Z,24.43
2019-03-29T10:44:06.631Z,27.70
2019-03-29T10:46:36.741Z,29.05
2019-03-29T10:49:06.956Z,29.00
2019-03-29T10:51:37.189Z,26.05
2019-03-29T10:54:06.903Z,21.00
2019-03-29T10:56:37.030Z,22.55
2019-03-29T10:59:07.243Z,25.05
2019-03-29T11:01:37.292Z,21.70
2019-03-29T11:04:08.164Z,20.68
2019-03-29T11:06:38.009Z,18.85
2019-03-29T11:09:09.040Z,18.90
2019-03-29T11:11:38.851Z,19.17
2019-03-29T11:14:08.725Z,19.55
2019-03-29T11:16:39.109Z,19.32
2019-03-29T11:19:09.238Z,19.50
2019-03-29T11:21:39.666Z,19.02
2019-03-29T11:24:09.630Z,20.45
2019-03-29T11:26:39.542Z,19.32
2019-03-29T11:29:09.621Z,17.57
2019-03-29T11:31:39.480Z,15.50
2019-03-29T11:34:09.661Z,22.42
2019-03-29T11:36:40.265Z,17.20
2019-03-29T11:39:10.473Z,18.52
2019-03-29T11:41:40.497Z,18.98
2019-03-29T11:44:11.488Z,18.75
2019-03-29T11:46:41.330Z,20.48
2019-03-29T11:49:11.213Z,16.80
2019-03-29T11:51:41.727Z,17.02
2019-03-29T11:54:11.698Z,21.95
2019-03-29T11:56:42.115Z,18.57
2019-03-29T11:59:12.252Z,17.42
2019-03-29T12:01:42.365Z,19.00
2019-03-29T12:04:12.818Z,21.55
2019-03-29T12:06:43.023Z,17.40
2019-03-29T12:09:13.301Z,17.40
2019-03-29T12:11:43.008Z,18.20
2019-03-29T12:14:12.749Z,16.20
2019-03-29T12:16:42.640Z,18.40
2019-03-29T12:19:12.354Z,18.60
2019-03-29T12:21:42.095Z,15.55
2019-03-29T12:24:12.675Z,15.55
2019-03-29T12:26:43.650Z,18.05
2019-03-29T12:29:14.180Z,17.85
2019-03-29T12:31:44.113Z,16.93
2019-03-29T12:34:14.197Z,16.20
2019-03-29T12:36:46.005Z,16.12
2019-03-29T12:39:15.871Z,16.62
2019-03-29T12:41:45.643Z,16.70
2019-03-29T12:44:16.301Z,19.10
2019-03-29T12:46:46.316Z,16.37
2019-03-29T12:49:16.069Z,16.97
2019-03-29T12:51:46.885Z,15.70
2019-03-29T12:54:17.170Z,13.88
2019-03-29T12:56:47.422Z,16.67
2019-03-29T12:59:17.608Z,16.10
2019-03-29T13:01:47.770Z,16.12
2019-03-29T13:04:17.636Z,21.30
2019-03-29T13:06:47.499Z,20.40
2019-03-29T13:09:17.303Z,18.23
2019-03-29T13:11:47.039Z,17.25
2019-03-29T13:14:16.800Z,17.48
2019-03-29T13:16:46.947Z,21.55
2019-03-29T13:19:16.752Z,17.15
2019-03-29T13:21:46.623Z,15.88
2019-03-29T13:24:16.501Z,17.37
2019-03-29T13:26:46.680Z,16.52
2019-03-29T13:29:17.532Z,18.10
2019-03-29T13:31:47.325Z,18.12
2019-03-29T13:34:17.578Z,18.20
2019-03-29T13:36:47.366Z,17.42
2019-03-29T13:39:17.243Z,14.90
2019-03-29T13:41:47.331Z,17.07
2019-03-29T13:44:23.681Z,16.35
2019-03-29T13:46:49.386Z,21.90
2019-03-29T13:49:19.577Z,19.25
2019-03-29T13:51:49.367Z,19.82
2019-03-29T13:54:19.697Z,16.20
2019-03-29T13:56:50.351Z,18.92
2019-03-29T13:59:20.094Z,17.02
2019-03-29T14:01:49.908Z,22.52
2019-03-29T14:04:19.987Z,18.25
2019-03-29T14:06:49.776Z,15.78
2019-03-29T14:09:19.880Z,16.20
2019-03-29T14:11:49.958Z,17.17
2019-03-29T14:14:20.744Z,20.50
2019-03-29T14:16:50.620Z,18.98
2019-03-29T14:19:20.768Z,23.38
2019-03-29T14:21:51.006Z,22.32
2019-03-29T14:24:21.598Z,20.82
2019-03-29T14:26:51.466Z,20.60
2019-03-29T14:29:21.212Z,18.20
2019-03-29T14:31:54.014Z,19.50
2019-03-29T14:34:22.941Z,21.77
2019-03-29T14:36:53.108Z,20.83
2019-03-29T14:39:22.914Z,20.93
2019-03-29T14:41:52.724Z,22.83
2019-03-29T14:44:22.506Z,19.30
2019-03-29T14:46:52.239Z,18.00
2019-03-29T14:49:22.866Z,16.83
2019-03-29T14:51:52.590Z,18.73
2019-03-29T14:54:22.652Z,26.60
2019-03-29T14:56:52.722Z,20.13
2019-03-29T14:59:22.821Z,21.13
2019-03-29T15:01:52.856Z,21.67
2019-03-29T15:04:23.380Z,23.37
2019-03-29T15:06:53.929Z,18.40
2019-03-29T15:09:24.142Z,21.73
2019-03-29T15:11:54.194Z,19.33
2019-03-29T15:14:24.615Z,19.93
2019-03-29T15:16:54.634Z,20.90
2019-03-29T15:19:25.435Z,22.37
2019-03-29T15:21:56.083Z,25.53
2019-03-29T15:24:26.114Z,20.67
2019-03-29T15:26:56.644Z,19.13
2019-03-29T15:29:26.867Z,21.57
2019-03-29T15:31:57.046Z,23.07
2019-03-29T15:34:27.206Z,22.40
2019-03-29T15:36:57.031Z,20.20
2019-03-29T15:39:27.606Z,19.57
2019-03-29T15:41:58.214Z,26.07
2019-03-29T15:44:28.737Z,21.03
2019-03-29T15:46:58.975Z,21.77
2019-03-29T15:49:28.870Z,25.20
2019-03-29T15:51:59.069Z,21.73
2019-03-29T15:54:29.680Z,21.37
2019-03-29T15:57:01.812Z,21.83
2019-03-29T15:59:31.980Z,25.93
2019-03-29T16:02:02.377Z,27.00
2019-03-29T16:04:32.179Z,22.80
2019-03-29T16:07:02.866Z,22.33
2019-03-29T16:09:32.667Z,25.50
2019-03-29T16:12:02.793Z,23.50
2019-03-29T16:14:32.524Z,23.17
2019-03-29T16:17:02.599Z,23.23
2019-03-29T16:19:32.735Z,29.03
2019-03-29T16:22:05.885Z,24.30
2019-03-29T16:24:34.483Z,29.20
2019-03-29T16:27:04.378Z,21.30
2019-03-29T16:29:35.181Z,26.43
2019-03-29T16:32:05.666Z,25.37
2019-03-29T16:34:35.914Z,27.87
2019-03-29T16:37:06.162Z,25.03
2019-03-29T16:39:36.453Z,26.30
2019-03-29T16:42:06.300Z,26.57
2019-03-29T16:44:36.118Z,25.13
2019-03-29T16:47:06.708Z,25.03
2019-03-29T16:49:36.528Z,25.20
2019-03-29T16:52:06.268Z,23.57
2019-03-29T16:54:36.070Z,23.87
2019-03-29T16:57:06.214Z,24.67
2019-03-29T16:59:35.984Z,24.07
2019-03-29T17:02:06.574Z,21.90
2019-03-29T17:04:36.450Z,26.90
2019-03-29T17:07:06.550Z,23.10
2019-03-29T17:09:36.327Z,27.37
2019-03-29T17:12:06.276Z,24.53
2019-03-29T17:14:36.394Z,27.93
2019-03-29T17:17:06.207Z,23.63
2019-03-29T17:19:35.934Z,24.83
2019-03-29T17:22:06.159Z,23.60
2019-03-29T17:24:36.322Z,22.10
2019-03-29T17:27:06.194Z,28.50
2019-03-29T17:29:35.994Z,26.60
2019-03-29T17:32:06.214Z,29.53
2019-03-29T17:34:48.183Z,25.63
2019-03-29T17:37:18.553Z,25.97
2019-03-29T17:39:48.729Z,27.63
2019-03-29T17:42:18.502Z,24.83
2019-03-29T17:44:48.638Z,32.00
2019-03-29T17:47:18.367Z,27.53
2019-03-29T17:49:48.112Z,30.53
2019-03-29T17:52:18.777Z,33.13
2019-03-29T17:54:48.610Z,27.80
2019-03-29T17:57:18.328Z,33.17
2019-03-29T17:59:48.479Z,32.20
2019-03-29T18:02:18.949Z,34.50
2019-03-29T18:04:49.068Z,32.13
2019-03-29T18:07:19.249Z,29.17
2019-03-29T18:09:48.959Z,32.10
2019-03-29T18:12:19.217Z,33.60
2019-03-29T18:14:49.345Z,44.97
2019-03-29T18:17:19.144Z,40.23
2019-03-29T18:19:49.944Z,32.37
2019-03-29T18:22:20.072Z,34.63
2019-03-29T18:24:49.808Z,30.00
2019-03-29T18:27:19.542Z,36.60
2019-03-29T18:29:49.272Z,27.40
2019-03-29T18:32:20.530Z,30.73
2019-03-29T18:34:50.736Z,38.77
2019-03-29T18:37:21.138Z,35.57
2019-03-29T18:39:50.865Z,40.63
2019-03-29T18:42:21.035Z,51.03
2019-03-29T18:44:52.130Z,60.67
2019-03-29T18:47:21.964Z,68.43
2019-03-29T18:50:02.016Z,71.37
2019-03-29T18:52:33.277Z,70.07
2019-03-29T18:55:03.792Z,76.93
2019-03-29T18:57:33.595Z,81.80
2019-03-29T19:00:04.097Z,81.63
2019-03-29T19:02:34.270Z,93.23
2019-03-29T19:05:04.663Z,82.47
2019-03-29T19:07:34.813Z,90.17
2019-03-29T19:10:05.254Z,83.50
2019-03-29T19:12:36.961Z,91.30
2019-03-29T19:15:07.724Z,89.80
2019-03-29T19:17:37.891Z,99.33
2019-03-29T19:20:10.388Z,98.63
2019-03-29T19:22:40.191Z,103.77
2019-03-29T19:25:10.932Z,108.90
2019-03-29T19:27:41.943Z,99.17
2019-03-29T19:30:12.475Z,111.37
2019-03-29T19:32:44.082Z,110.13
2019-03-29T19:35:14.280Z,107.90
2019-03-29T19:37:44.132Z,113.37
2019-03-29T19:40:15.606Z,108.00
2019-03-29T19:42:45.702Z,114.13
2019-03-29T19:45:16.109Z,111.40
2019-03-29T19:47:46.310Z,106.53
2019-03-29T19:50:16.358Z,114.90
2019-03-29T19:52:46.170Z,111.33
2019-03-29T19:55:16.014Z,118.30
2019-03-29T19:57:47.888Z,115.23
2019-03-29T20:00:18.478Z,107.43
2019-03-29T20:02:48.310Z,121.03
2019-03-29T20:05:28.907Z,117.23
2019-03-29T20:07:58.706Z,113.53
2019-03-29T20:10:28.558Z,117.43
2019-03-29T20:12:58.930Z,115.53
2019-03-29T20:15:30.817Z,114.33
2019-03-29T20:18:01.486Z,111.83
2019-03-29T20:20:31.621Z,118.93
2019-03-29T20:23:01.849Z,117.87
2019-03-29T20:25:31.650Z,117.60
2019-03-29T20:28:01.501Z,116.17
2019-03-29T20:30:31.363Z,119.47
2019-03-29T20:33:01.584Z,115.40
2019-03-29T20:35:34.148Z,130.80
2019-03-29T20:38:04.067Z,125.73
2019-03-29T20:40:33.912Z,119.80
2019-03-29T20:43:03.852Z,125.83
2019-03-29T20:45:33.930Z,120.47
2019-03-29T20:48:04.083Z,134.17
2019-03-29T20:50:33.831Z,128.80
2019-03-29T20:53:03.963Z,122.77
2019-03-29T20:55:34.150Z,127.33
2019-03-29T20:58:04.703Z,142.60
2019-03-29T21:00:36.217Z,132.90
2019-03-29T21:03:06.913Z,127.90
2019-03-29T21:05:37.455Z,135.63
2019-03-29T21:08:08.740Z,139.27
2019-03-29T21:10:38.976Z,136.60
2019-03-29T21:13:09.145Z,136.50
2019-03-29T21:15:38.987Z,141.20
2019-03-29T21:18:09.040Z,143.97
2019-03-29T21:20:39.103Z,137.03
2019-03-29T21:23:09.289Z,143.30
2019-03-29T21:25:39.204Z,140.77
2019-03-29T21:28:09.493Z,137.17
2019-03-29T21:30:39.326Z,132.83
2019-03-29T21:33:09.109Z,135.20
2019-03-29T21:35:39.358Z,134.00
2019-03-29T21:38:09.366Z,142.37
2019-03-29T21:40:40.519Z,146.87
2019-03-29T21:43:10.795Z,145.43
2019-03-29T21:45:41.058Z,151.50
2019-03-29T21:48:27.937Z,147.77
2019-03-29T21:50:42.758Z,145.70
2019-03-29T21:53:12.653Z,150.23
2019-03-29T21:55:42.778Z,143.07
2019-03-29T21:58:13.095Z,146.43
2019-03-29T22:00:42.797Z,152.40
2019-03-29T22:03:12.545Z,149.10
2019-03-29T22:05:42.349Z,150.83
2019-03-29T22:08:12.867Z,150.20
2019-03-29T22:10:42.675Z,145.90
2019-03-29T22:13:13.089Z,150.10
2019-03-29T22:15:42.827Z,161.17
2019-03-29T22:18:12.901Z,155.47
2019-03-29T22:20:42.686Z,157.57
2019-03-29T22:23:13.343Z,152.17
2019-03-29T22:25:43.440Z,157.97
2019-03-29T22:28:13.564Z,144.20
2019-03-29T22:30:44.147Z,156.80
2019-03-29T22:33:14.388Z,150.10
2019-03-29T22:35:44.878Z,152.57
2019-03-29T22:38:14.768Z,149.37
2019-03-29T22:40:44.520Z,157.93
2019-03-29T22:43:14.307Z,167.33
2019-03-29T22:45:44.411Z,154.13
2019-03-29T22:48:14.123Z,145.50
2019-03-29T22:50:44.229Z,145.90
2019-03-29T22:53:14.008Z,145.17
2019-03-29T22:55:43.732Z,154.33
2019-03-29T22:58:13.441Z,149.17
2019-03-29T23:00:47.415Z,141.27
2019-03-29T23:03:17.690Z,152.70
2019-03-29T23:05:47.843Z,145.10
2019-03-29T23:08:18.019Z,146.77
2019-03-29T23:10:47.738Z,152.47
2019-03-29T23:13:17.453Z,145.67
2019-03-29T23:15:47.569Z,149.90
2019-03-29T23:18:18.019Z,148.73
2019-03-29T23:20:47.895Z,149.13
2019-03-29T23:23:17.750Z,150.33
2019-03-29T23:25:47.993Z,140.30
2019-03-29T23:28:17.768Z,146.43
2019-03-29T23:30:47.880Z,150.77
2019-03-29T23:33:17.591Z,162.20
2019-03-29T23:35:47.607Z,143.17
2019-03-29T23:38:17.750Z,147.50
2019-03-29T23:40:47.461Z,137.17
2019-03-29T23:43:17.719Z,145.43
2019-03-29T23:45:47.440Z,143.60
2019-03-29T23:48:17.529Z,154.80
2019-03-29T23:50:47.259Z,141.93
2019-03-29T23:53:17.446Z,148.67
2019-03-29T23:55:47.693Z,137.70
2019-03-29T23:58:17.724Z,134.67
